Terminal Aerodrome Forecast
Issued by NWS Mobile, AL

Home | Current Version | Previous Version | Text Only | Print | Product List | Glossary On
Versions: 1 2 3 4 5 6 7 8 9 10 11 12 13 14 15 16 17 18 19 20 21 22 23 24 25 26 27 28 29 30 31 32 33 34
000
FTUS44 KMOB 241721
TAFMOB
TAF
KMOB 241721Z 2418/2518 VRB03KT P6SM VCSH SCT025 BKN060
     FM242100 26006KT P6SM VCTS BKN025CB OVC050
      TEMPO 2421/2424 VRB15KT 2SM TSRA BKN020CB OVC040
     FM250000 26004KT P6SM FEW015 BKN025 OVC040=

USA.gov is the U.S. government's official web portal to all federal, state and local government web resources and services.